

Wyoming Mesonet
Water Resources Data System and State Climate Office
SEO WACNet, UW USACE UMRB, USDA-ARS, BLM
| Wind | Soil | |||||||||||||||||||
| Temp | Precip | Speed | Dir | Gust | Dir | Humidity | Pressure | Solar | Snow | Temperature (Deg F) | Moisture (%) | |||||||||
| Date Time (MST) | (F) | (in) | (mph) | (deg) | (mph) | (deg) | (%) | (Mbars) | (w/m^2) | (in) | 5cm | 10cm | 20cm | 50cm | 1m | 5cm | 10cm | 20cm | 50cm | 1m |
| 2026-08-30 00:00:00 | 67.23 | 0.00 | 18.61 | 243 | 24.09 | 238 | 51.8 | 851.0 | 0.0 | 0.0 | 74.12 | 76.64 | 76.82 | 73.94 | 72.14 | 14.8% | 17.7% | 18.8% | 19.9% | 15.6% |
| 2026-08-30 01:00:00 | 66.87 | 0.00 | 13.77 | 240 | 21.74 | 245 | 50.1 | 851.0 | 0.0 | 0.0 | 73.22 | 75.74 | 76.64 | 73.94 | 72.14 | 13.9% | 17.5% | 18.8% | 19.9% | 15.9% |
| 2026-08-30 02:00:00 | 66.43 | 0.00 | 15.57 | 230 | 19.62 | 244 | 52.1 | 851.0 | 0.0 | 0.0 | 72.50 | 75.20 | 76.64 | 73.94 | 72.14 | 13.7% | 17.6% | 18.8% | 19.8% | 15.8% |
| 2026-08-30 03:00:00 | 65.19 | 0.00 | 15.71 | 236 | 22.62 | 239 | 53.8 | 851.0 | 0.0 | 0.0 | 71.96 | 74.66 | 76.64 | 73.94 | 71.96 | 13.6% | 17.6% | 18.8% | 19.8% | 15.5% |
| 2026-08-30 04:00:00 | 64.65 | 0.00 | 17.01 | 222 | 21.85 | 228 | 54.6 | 851.0 | 0.0 | 0.0 | 71.24 | 74.12 | 76.28 | 73.94 | 72.14 | 13.4% | 17.6% | 18.8% | 19.9% | 15.4% |
| 2026-08-30 05:00:00 | 64.17 | 0.00 | 17.27 | 226 | 21.25 | 226 | 54.1 | 851.0 | 0.0 | 0.0 | 70.70 | 73.58 | 76.28 | 73.94 | 72.14 | 13.4% | 17.5% | 18.8% | 19.8% | 15.7% |
| 2026-08-30 06:00:00 | 64.71 | 0.00 | 19.24 | 229 | 25.34 | 231 | 52.9 | 852.0 | 58.1 | 0.0 | 69.98 | 73.22 | 76.10 | 73.94 | 72.14 | 13.2% | 17.5% | 18.9% | 19.9% | 15.7% |
| 2026-08-30 07:00:00 | 65.95 | 0.00 | 13.28 | 216 | 20.38 | 220 | 52.5 | 852.0 | 148.0 | 0.0 | 69.62 | 72.68 | 75.92 | 73.94 | 72.14 | 13.2% | 17.5% | 18.8% | 19.8% | 15.5% |
| 2026-08-30 08:00:00 | 70.97 | 0.00 | 11.87 | 228 | 18.63 | 235 | 44.1 | 852.0 | 453.6 | 0.0 | 69.80 | 72.32 | 75.74 | 73.94 | 72.14 | 13.4% | 17.5% | 18.7% | 19.8% | 15.5% |
| 2026-08-30 09:00:00 | 75.33 | 0.00 | 6.99 | 252 | 17.52 | 228 | 33.8 | 852.0 | 636.7 | 0.0 | 71.24 | 72.32 | 75.38 | 73.94 | 72.14 | 13.8% | 17.5% | 18.7% | 19.8% | 15.5% |
| 2026-08-30 10:00:00 | 79.07 | 0.00 | 24.07 | 232 | 30.44 | 237 | 30.1 | 851.0 | 776.7 | 0.0 | 74.30 | 72.68 | 75.38 | 73.94 | 72.14 | 14.5% | 17.5% | 18.7% | 19.8% | 16.0% |
| 2026-08-30 11:00:00 | 80.01 | 0.00 | 25.72 | 240 | 37.27 | 247 | 25.3 | 851.0 | 509.5 | 0.0 | 77.36 | 73.76 | 75.20 | 73.76 | 72.14 | 14.9% | 17.6% | 18.8% | 19.9% | 15.6% |
| 2026-08-30 12:00:00 | 80.94 | 0.00 | 19.62 | 251 | 35.52 | 232 | 23.7 | 851.0 | 647.4 | 0.0 | 80.24 | 75.20 | 75.02 | 73.94 | 72.14 | 15.2% | 17.6% | 18.7% | 19.8% | 15.8% |
| 2026-08-30 13:00:00 | 77.67 | 0.00 | 24.47 | 300 | 32.79 | 303 | 26.2 | 852.0 | 382.7 | 0.0 | 82.22 | 76.64 | 74.84 | 73.76 | 72.14 | 15.3% | 17.7% | 18.8% | 19.8% | 15.7% |
| 2026-08-30 14:00:00 | 80.85 | 0.00 | 25.75 | 265 | 36.64 | 271 | 18.1 | 852.0 | 575.8 | 0.0 | 82.58 | 77.54 | 74.84 | 73.76 | 72.14 | 15.2% | 17.7% | 18.7% | 19.8% | 15.5% |
| 2026-08-30 15:00:00 | 78.84 | 0.00 | 18.01 | 233 | 34.78 | 271 | 20.3 | 852.0 | 699.9 | 0.0 | 83.30 | 78.26 | 75.02 | 73.76 | 71.96 | 15.2% | 17.8% | 18.7% | 19.8% | 15.5% |
| 2026-08-30 16:00:00 | 81.52 | 0.00 | 20.51 | 281 | 32.79 | 259 | 15.8 | 852.0 | 453.2 | 0.0 | 83.66 | 78.98 | 75.02 | 73.58 | 71.96 | 15.3% | 17.8% | 18.7% | 19.9% | 15.9% |
| 2026-08-30 17:00:00 | 79.75 | 0.00 | 13.95 | 279 | 29.82 | 268 | 16.5 | 852.0 | 234.7 | 0.0 | 83.48 | 79.34 | 75.20 | 73.58 | 72.14 | 15.2% | 17.8% | 18.9% | 19.8% | 15.5% |
| 2026-08-30 18:00:00 | 74.66 | 0.00 | 4.90 | 8 | 23.11 | 264 | 31.3 | 852.0 | 118.0 | 0.0 | 82.76 | 79.52 | 75.20 | 73.58 | 71.96 | 14.9% | 17.8% | 18.7% | 19.8% | 15.6% |
| 2026-08-30 19:00:00 | 68.45 | 0.00 | 11.12 | 26 | 19.62 | 73 | 44.3 | 852.0 | 0.0 | 0.0 | 81.32 | 79.34 | 75.38 | 73.58 | 71.96 | 15.0% | 17.9% | 18.7% | 19.8% | 15.7% |
| 2026-08-30 20:00:00 | 63.82 | 0.00 | 4.58 | 345 | 10.81 | 60 | 51.8 | 853.0 | 0.0 | 0.0 | 79.34 | 78.80 | 75.56 | 73.40 | 71.96 | 15.0% | 17.9% | 18.8% | 19.8% | 15.9% |
| 2026-08-30 21:00:00 | 60.93 | 0.00 | 5.63 | 31 | 8.69 | 30 | 57.5 | 853.0 | 0.0 | 0.0 | 77.18 | 78.08 | 75.74 | 73.58 | 71.96 | 14.4% | 17.8% | 18.9% | 19.8% | 15.7% |
| 2026-08-30 22:00:00 | 59.09 | 0.00 | 5.03 | 319 | 7.21 | 24 | 61.2 | 854.0 | 0.0 | 0.0 | 75.20 | 77.18 | 75.74 | 73.58 | 71.96 | 13.5% | 17.7% | 18.8% | 19.8% | 15.4% |
| 2026-08-30 23:00:00 | 57.15 | 0.00 | 3.76 | 328 | 11.18 | 331 | 65.1 | 854.0 | 0.0 | 0.0 | 73.40 | 76.28 | 75.92 | 73.40 | 71.96 | 13.6% | 17.7% | 18.8% | 19.8% | 15.6% |